sensor_id;sensor_type;location;lat;lon;timestamp;temperature;humidity
15609;DHT22;64278;45.642;13.756;2023-03-21T00:01:04;22.90;59.50
15609;DHT22;64278;45.642;13.756;2023-03-21T00:03:32;22.90;59.50
15609;DHT22;64278;45.642;13.756;2023-03-21T00:06:04;22.90;59.50
15609;DHT22;64278;45.642;13.756;2023-03-21T00:08:29;22.90;59.50
15609;DHT22;64278;45.642;13.756;2023-03-21T00:11:00;22.90;59.50
15609;DHT22;64278;45.642;13.756;2023-03-21T00:13:28;22.90;59.60
15609;DHT22;64278;45.642;13.756;2023-03-21T00:15:58;22.90;59.60
15609;DHT22;64278;45.642;13.756;2023-03-21T00:18:27;22.80;59.50
15609;DHT22;64278;45.642;13.756;2023-03-21T00:21:01;22.80;59.50
15609;DHT22;64278;45.642;13.756;2023-03-21T00:23:28;22.80;59.50
15609;DHT22;64278;45.642;13.756;2023-03-21T00:25:54;22.80;59.50
15609;DHT22;64278;45.642;13.756;2023-03-21T00:28:20;22.80;59.50
15609;DHT22;64278;45.642;13.756;2023-03-21T00:30:46;22.80;59.60
15609;DHT22;64278;45.642;13.756;2023-03-21T00:33:12;22.80;59.60
15609;DHT22;64278;45.642;13.756;2023-03-21T00:35:39;22.80;59.50
15609;DHT22;64278;45.642;13.756;2023-03-21T00:38:07;22.80;59.60
15609;DHT22;64278;45.642;13.756;2023-03-21T00:40:32;22.80;59.60
15609;DHT22;64278;45.642;13.756;2023-03-21T00:42:58;22.80;59.50
15609;DHT22;64278;45.642;13.756;2023-03-21T00:45:24;22.80;59.50
15609;DHT22;64278;45.642;13.756;2023-03-21T00:47:49;22.70;59.50
15609;DHT22;64278;45.642;13.756;2023-03-21T00:50:15;22.70;59.50
15609;DHT22;64278;45.642;13.756;2023-03-21T00:52:41;22.70;59.50
15609;DHT22;64278;45.642;13.756;2023-03-21T00:55:18;22.70;59.50
15609;DHT22;64278;45.642;13.756;2023-03-21T00:57:44;22.70;59.50
15609;DHT22;64278;45.642;13.756;2023-03-21T01:00:12;22.70;59.50
15609;DHT22;64278;45.642;13.756;2023-03-21T01:02:39;22.70;59.50
15609;DHT22;64278;45.642;13.756;2023-03-21T01:05:28;22.70;59.50
15609;DHT22;64278;45.642;13.756;2023-03-21T01:08:15;22.70;59.50
15609;DHT22;64278;45.642;13.756;2023-03-21T01:10:43;22.70;59.50
15609;DHT22;64278;45.642;13.756;2023-03-21T01:13:11;22.70;59.40
15609;DHT22;64278;45.642;13.756;2023-03-21T01:15:43;22.60;59.40
15609;DHT22;64278;45.642;13.756;2023-03-21T01:18:08;22.60;59.40
15609;DHT22;64278;45.642;13.756;2023-03-21T01:20:34;22.60;59.40
15609;DHT22;64278;45.642;13.756;2023-03-21T01:23:00;22.60;59.40
15609;DHT22;64278;45.642;13.756;2023-03-21T01:25:26;22.60;59.40
15609;DHT22;64278;45.642;13.756;2023-03-21T01:27:52;22.60;59.30
15609;DHT22;64278;45.642;13.756;2023-03-21T01:30:19;22.60;59.40
15609;DHT22;64278;45.642;13.756;2023-03-21T01:32:45;22.60;59.40
15609;DHT22;64278;45.642;13.756;2023-03-21T01:35:11;22.60;59.40
15609;DHT22;64278;45.642;13.756;2023-03-21T01:37:37;22.60;59.40
15609;DHT22;64278;45.642;13.756;2023-03-21T01:40:03;22.60;59.40
15609;DHT22;64278;45.642;13.756;2023-03-21T01:42:29;22.50;59.30
15609;DHT22;64278;45.642;13.756;2023-03-21T01:47:23;22.50;59.30
15609;DHT22;64278;45.642;13.756;2023-03-21T01:49:51;22.50;59.30
15609;DHT22;64278;45.642;13.756;2023-03-21T01:52:31;22.50;59.30
15609;DHT22;64278;45.642;13.756;2023-03-21T01:54:59;22.50;59.30
15609;DHT22;64278;45.642;13.756;2023-03-21T01:57:30;22.50;59.30
15609;DHT22;64278;45.642;13.756;2023-03-21T02:00:00;22.50;59.30
15609;DHT22;64278;45.642;13.756;2023-03-21T02:02:35;22.50;59.30
15609;DHT22;64278;45.642;13.756;2023-03-21T02:05:02;22.50;59.30
15609;DHT22;64278;45.642;13.756;2023-03-21T02:07:30;22.50;59.30
15609;DHT22;64278;45.642;13.756;2023-03-21T02:10:04;22.50;59.30
15609;DHT22;64278;45.642;13.756;2023-03-21T02:12:33;22.50;59.30
15609;DHT22;64278;45.642;13.756;2023-03-21T02:14:58;22.50;59.30
15609;DHT22;64278;45.642;13.756;2023-03-21T02:17:42;22.50;59.30
15609;DHT22;64278;45.642;13.756;2023-03-21T02:29:15;22.40;59.20
15609;DHT22;64278;45.642;13.756;2023-03-21T02:45:08;22.40;58.80
15609;DHT22;64278;45.642;13.756;2023-03-21T02:47:42;22.40;58.80
15609;DHT22;64278;45.642;13.756;2023-03-21T02:52:38;22.30;58.80
15609;DHT22;64278;45.642;13.756;2023-03-21T02:55:13;22.40;58.90
15609;DHT22;64278;45.642;13.756;2023-03-21T02:57:43;22.30;58.80
15609;DHT22;64278;45.642;13.756;2023-03-21T03:00:12;22.30;58.80
15609;DHT22;64278;45.642;13.756;2023-03-21T03:02:41;22.30;58.80
15609;DHT22;64278;45.642;13.756;2023-03-21T03:05:18;22.30;58.80
15609;DHT22;64278;45.642;13.756;2023-03-21T03:13:40;22.30;58.80
15609;DHT22;64278;45.642;13.756;2023-03-21T03:18:55;22.30;58.70
15609;DHT22;64278;45.642;13.756;2023-03-21T03:24:00;22.30;58.70
15609;DHT22;64278;45.642;13.756;2023-03-21T03:26:32;22.30;58.70
15609;DHT22;64278;45.642;13.756;2023-03-21T03:29:03;22.30;58.70
15609;DHT22;64278;45.642;13.756;2023-03-21T03:31:35;22.30;58.80
15609;DHT22;64278;45.642;13.756;2023-03-21T03:34:08;22.30;58.70
15609;DHT22;64278;45.642;13.756;2023-03-21T03:36:39;22.30;58.70
15609;DHT22;64278;45.642;13.756;2023-03-21T03:39:09;22.30;58.70
15609;DHT22;64278;45.642;13.756;2023-03-21T03:41:41;22.30;58.70
15609;DHT22;64278;45.642;13.756;2023-03-21T03:44:08;22.20;58.70
15609;DHT22;64278;45.642;13.756;2023-03-21T03:47:05;22.30;58.70
15609;DHT22;64278;45.642;13.756;2023-03-21T03:49:40;22.20;58.60
15609;DHT22;64278;45.642;13.756;2023-03-21T03:52:21;22.20;58.70
15609;DHT22;64278;45.642;13.756;2023-03-21T03:54:51;22.20;58.70
15609;DHT22;64278;45.642;13.756;2023-03-21T03:57:17;22.20;58.70
15609;DHT22;64278;45.642;13.756;2023-03-21T03:59:44;22.20;58.70
15609;DHT22;64278;45.642;13.756;2023-03-21T04:02:11;22.20;58.70
15609;DHT22;64278;45.642;13.756;2023-03-21T04:04:38;22.20;58.70
15609;DHT22;64278;45.642;13.756;2023-03-21T04:07:04;22.20;58.70
15609;DHT22;64278;45.642;13.756;2023-03-21T04:09:30;22.20;58.70
15609;DHT22;64278;45.642;13.756;2023-03-21T04:11:57;22.20;58.70
15609;DHT22;64278;45.642;13.756;2023-03-21T04:14:23;22.20;58.70
15609;DHT22;64278;45.642;13.756;2023-03-21T04:16:49;22.10;58.60
15609;DHT22;64278;45.642;13.756;2023-03-21T04:19:17;22.20;58.60
15609;DHT22;64278;45.642;13.756;2023-03-21T04:21:43;22.10;58.60
15609;DHT22;64278;45.642;13.756;2023-03-21T04:24:09;22.10;58.50
15609;DHT22;64278;45.642;13.756;2023-03-21T04:26:36;22.20;58.50
15609;DHT22;64278;45.642;13.756;2023-03-21T04:29:03;22.20;58.50
15609;DHT22;64278;45.642;13.756;2023-03-21T04:31:29;22.20;58.50
15609;DHT22;64278;45.642;13.756;2023-03-21T04:34:03;22.20;58.50
15609;DHT22;64278;45.642;13.756;2023-03-21T04:36:30;22.10;58.40
15609;DHT22;64278;45.642;13.756;2023-03-21T04:39:04;22.10;58.30
15609;DHT22;64278;45.642;13.756;2023-03-21T04:41:30;22.10;58.30
15609;DHT22;64278;45.642;13.756;2023-03-21T04:43:56;22.10;58.20
15609;DHT22;64278;45.642;13.756;2023-03-21T04:46:22;22.10;58.20
15609;DHT22;64278;45.642;13.756;2023-03-21T04:48:48;22.10;58.20
15609;DHT22;64278;45.642;13.756;2023-03-21T04:51:15;22.10;58.20
15609;DHT22;64278;45.642;13.756;2023-03-21T04:53:41;22.10;58.10
15609;DHT22;64278;45.642;13.756;2023-03-21T04:56:10;22.10;58.10
15609;DHT22;64278;45.642;13.756;2023-03-21T04:58:36;22.00;58.00
15609;DHT22;64278;45.642;13.756;2023-03-21T05:01:02;22.10;58.00
15609;DHT22;64278;45.642;13.756;2023-03-21T05:03:30;22.00;57.90
15609;DHT22;64278;45.642;13.756;2023-03-21T05:05:59;22.00;58.40
15609;DHT22;64278;45.642;13.756;2023-03-21T05:08:25;22.00;57.70
15609;DHT22;64278;45.642;13.756;2023-03-21T05:10:51;22.00;57.60
15609;DHT22;64278;45.642;13.756;2023-03-21T05:13:17;22.00;57.70
15609;DHT22;64278;45.642;13.756;2023-03-21T05:15:43;22.00;57.70
15609;DHT22;64278;45.642;13.756;2023-03-21T05:18:08;22.00;57.80
15609;DHT22;64278;45.642;13.756;2023-03-21T05:20:38;22.00;57.70
15609;DHT22;64278;45.642;13.756;2023-03-21T05:23:09;22.00;57.70
15609;DHT22;64278;45.642;13.756;2023-03-21T05:25:38;22.00;57.70
15609;DHT22;64278;45.642;13.756;2023-03-21T05:28:06;22.00;57.70
15609;DHT22;64278;45.642;13.756;2023-03-21T05:30:32;22.00;57.70
15609;DHT22;64278;45.642;13.756;2023-03-21T05:32:58;22.00;57.70
15609;DHT22;64278;45.642;13.756;2023-03-21T05:35:24;22.00;57.70
15609;DHT22;64278;45.642;13.756;2023-03-21T05:37:51;21.90;57.60
15609;DHT22;64278;45.642;13.756;2023-03-21T05:40:17;22.00;57.60
15609;DHT22;64278;45.642;13.756;2023-03-21T05:42:46;22.00;57.60
15609;DHT22;64278;45.642;13.756;2023-03-21T05:45:12;22.00;57.50
15609;DHT22;64278;45.642;13.756;2023-03-21T05:47:38;21.90;57.50
15609;DHT22;64278;45.642;13.756;2023-03-21T05:50:04;21.90;57.50
15609;DHT22;64278;45.642;13.756;2023-03-21T05:52:31;21.90;57.50
15609;DHT22;64278;45.642;13.756;2023-03-21T05:54:57;21.90;57.40
15609;DHT22;64278;45.642;13.756;2023-03-21T05:57:23;21.90;57.40
15609;DHT22;64278;45.642;13.756;2023-03-21T05:59:48;21.90;57.30
15609;DHT22;64278;45.642;13.756;2023-03-21T06:02:14;21.90;57.30
15609;DHT22;64278;45.642;13.756;2023-03-21T06:04:40;21.90;57.30
15609;DHT22;64278;45.642;13.756;2023-03-21T06:07:06;21.90;57.30
15609;DHT22;64278;45.642;13.756;2023-03-21T06:09:32;21.90;57.30
15609;DHT22;64278;45.642;13.756;2023-03-21T06:11:58;21.90;57.30
15609;DHT22;64278;45.642;13.756;2023-03-21T06:14:24;21.90;57.30
15609;DHT22;64278;45.642;13.756;2023-03-21T06:16:50;21.80;57.90
15609;DHT22;64278;45.642;13.756;2023-03-21T06:19:19;21.90;57.40
15609;DHT22;64278;45.642;13.756;2023-03-21T06:21:46;21.80;57.40
15609;DHT22;64278;45.642;13.756;2023-03-21T06:24:12;21.90;57.40
15609;DHT22;64278;45.642;13.756;2023-03-21T06:26:37;21.80;57.40
15609;DHT22;64278;45.642;13.756;2023-03-21T06:29:03;21.90;57.50
15609;DHT22;64278;45.642;13.756;2023-03-21T06:31:29;21.90;58.10
15609;DHT22;64278;45.642;13.756;2023-03-21T06:33:55;21.90;57.50
15609;DHT22;64278;45.642;13.756;2023-03-21T06:36:21;21.90;57.50
15609;DHT22;64278;45.642;13.756;2023-03-21T06:38:46;21.90;57.60
15609;DHT22;64278;45.642;13.756;2023-03-21T06:41:13;21.80;57.40
15609;DHT22;64278;45.642;13.756;2023-03-21T06:43:39;21.80;57.40
15609;DHT22;64278;45.642;13.756;2023-03-21T06:46:04;21.80;57.50
15609;DHT22;64278;45.642;13.756;2023-03-21T06:48:31;21.80;57.50
15609;DHT22;64278;45.642;13.756;2023-03-21T06:50:57;21.80;57.50
15609;DHT22;64278;45.642;13.756;2023-03-21T06:53:24;21.80;57.50
15609;DHT22;64278;45.642;13.756;2023-03-21T06:55:55;21.80;57.50
15609;DHT22;64278;45.642;13.756;2023-03-21T06:58:21;21.80;57.60
15609;DHT22;64278;45.642;13.756;2023-03-21T07:00:47;21.80;57.50
15609;DHT22;64278;45.642;13.756;2023-03-21T07:03:13;21.80;57.60
15609;DHT22;64278;45.642;13.756;2023-03-21T07:05:39;21.80;57.60
15609;DHT22;64278;45.642;13.756;2023-03-21T07:08:07;21.80;57.70
15609;DHT22;64278;45.642;13.756;2023-03-21T07:10:38;21.80;57.70
15609;DHT22;64278;45.642;13.756;2023-03-21T07:13:04;21.80;57.70
15609;DHT22;64278;45.642;13.756;2023-03-21T07:15:31;21.80;57.70
15609;DHT22;64278;45.642;13.756;2023-03-21T07:17:59;21.80;57.70
15609;DHT22;64278;45.642;13.756;2023-03-21T07:20:24;21.80;57.70
15609;DHT22;64278;45.642;13.756;2023-03-21T07:22:51;21.80;57.70
15609;DHT22;64278;45.642;13.756;2023-03-21T07:25:17;21.80;57.70
15609;DHT22;64278;45.642;13.756;2023-03-21T07:27:44;21.80;57.70
15609;DHT22;64278;45.642;13.756;2023-03-21T07:30:11;21.80;57.70
15609;DHT22;64278;45.642;13.756;2023-03-21T07:32:37;21.80;57.70
15609;DHT22;64278;45.642;13.756;2023-03-21T07:35:08;21.80;57.70
15609;DHT22;64278;45.642;13.756;2023-03-21T07:37:34;21.80;57.70
15609;DHT22;64278;45.642;13.756;2023-03-21T07:40:00;21.80;57.80
15609;DHT22;64278;45.642;13.756;2023-03-21T07:42:26;21.80;57.70
15609;DHT22;64278;45.642;13.756;2023-03-21T07:44:52;21.80;57.80
15609;DHT22;64278;45.642;13.756;2023-03-21T07:47:19;21.80;57.80
15609;DHT22;64278;45.642;13.756;2023-03-21T07:49:45;21.80;57.80
15609;DHT22;64278;45.642;13.756;2023-03-21T07:52:11;21.80;57.80
15609;DHT22;64278;45.642;13.756;2023-03-21T07:54:37;21.80;57.80
15609;DHT22;64278;45.642;13.756;2023-03-21T07:57:03;21.80;57.70
15609;DHT22;64278;45.642;13.756;2023-03-21T07:59:28;21.80;57.70
15609;DHT22;64278;45.642;13.756;2023-03-21T08:01:54;21.80;57.70
15609;DHT22;64278;45.642;13.756;2023-03-21T08:04:20;21.80;57.70
15609;DHT22;64278;45.642;13.756;2023-03-21T08:06:47;21.80;57.70
15609;DHT22;64278;45.642;13.756;2023-03-21T08:09:12;21.80;57.70
15609;DHT22;64278;45.642;13.756;2023-03-21T08:11:39;21.80;57.60
15609;DHT22;64278;45.642;13.756;2023-03-21T08:14:04;21.80;57.60
15609;DHT22;64278;45.642;13.756;2023-03-21T08:16:30;21.80;57.60
15609;DHT22;64278;45.642;13.756;2023-03-21T08:18:56;21.80;57.60
15609;DHT22;64278;45.642;13.756;2023-03-21T08:21:22;21.80;57.60
15609;DHT22;64278;45.642;13.756;2023-03-21T08:23:47;21.80;57.50
15609;DHT22;64278;45.642;13.756;2023-03-21T08:26:13;21.80;57.50
15609;DHT22;64278;45.642;13.756;2023-03-21T08:28:43;21.80;57.50
15609;DHT22;64278;45.642;13.756;2023-03-21T08:31:10;21.80;57.50
15609;DHT22;64278;45.642;13.756;2023-03-21T08:33:36;21.80;57.50
15609;DHT22;64278;45.642;13.756;2023-03-21T08:36:02;21.80;57.50
15609;DHT22;64278;45.642;13.756;2023-03-21T08:38:28;21.80;57.50
15609;DHT22;64278;45.642;13.756;2023-03-21T08:40:56;21.80;57.60
15609;DHT22;64278;45.642;13.756;2023-03-21T08:43:22;21.70;57.70
15609;DHT22;64278;45.642;13.756;2023-03-21T08:45:48;21.70;57.70
15609;DHT22;64278;45.642;13.756;2023-03-21T08:48:14;21.80;57.80
15609;DHT22;64278;45.642;13.756;2023-03-21T08:50:40;21.80;57.80
15609;DHT22;64278;45.642;13.756;2023-03-21T08:53:05;21.80;58.50
15609;DHT22;64278;45.642;13.756;2023-03-21T08:55:31;21.80;57.90
15609;DHT22;64278;45.642;13.756;2023-03-21T08:57:58;21.80;57.90
15609;DHT22;64278;45.642;13.756;2023-03-21T09:00:24;21.80;57.80
15609;DHT22;64278;45.642;13.756;2023-03-21T09:02:50;21.80;57.60
15609;DHT22;64278;45.642;13.756;2023-03-21T09:05:17;21.80;57.50
15609;DHT22;64278;45.642;13.756;2023-03-21T09:07:44;21.70;57.30
15609;DHT22;64278;45.642;13.756;2023-03-21T09:10:14;21.70;56.90
15609;DHT22;64278;45.642;13.756;2023-03-21T09:12:41;21.70;56.70
15609;DHT22;64278;45.642;13.756;2023-03-21T09:15:08;21.70;56.50
15609;DHT22;64278;45.642;13.756;2023-03-21T09:17:34;21.70;56.30
15609;DHT22;64278;45.642;13.756;2023-03-21T09:20:00;21.60;56.00
15609;DHT22;64278;45.642;13.756;2023-03-21T09:22:32;21.60;55.90
15609;DHT22;64278;45.642;13.756;2023-03-21T09:24:58;21.60;56.00
15609;DHT22;64278;45.642;13.756;2023-03-21T09:27:27;21.60;56.00
15609;DHT22;64278;45.642;13.756;2023-03-21T09:29:52;21.60;56.10
15609;DHT22;64278;45.642;13.756;2023-03-21T09:32:18;21.60;56.10
15609;DHT22;64278;45.642;13.756;2023-03-21T09:34:44;21.60;56.10
15609;DHT22;64278;45.642;13.756;2023-03-21T09:37:10;21.60;56.30
15609;DHT22;64278;45.642;13.756;2023-03-21T09:39:42;21.70;56.40
15609;DHT22;64278;45.642;13.756;2023-03-21T09:47:31;21.70;56.50
15609;DHT22;64278;45.642;13.756;2023-03-21T09:50:20;21.70;56.50
15609;DHT22;64278;45.642;13.756;2023-03-21T09:55:40;21.80;56.60
15609;DHT22;64278;45.642;13.756;2023-03-21T10:00:39;21.80;56.60
15609;DHT22;64278;45.642;13.756;2023-03-21T10:03:25;21.80;56.70
15609;DHT22;64278;45.642;13.756;2023-03-21T10:05:54;21.80;56.70
15609;DHT22;64278;45.642;13.756;2023-03-21T10:08:31;21.80;56.70
15609;DHT22;64278;45.642;13.756;2023-03-21T10:11:11;21.80;56.80
15609;DHT22;64278;45.642;13.756;2023-03-21T10:13:58;21.80;56.80
15609;DHT22;64278;45.642;13.756;2023-03-21T10:18:55;21.80;56.90
15609;DHT22;64278;45.642;13.756;2023-03-21T10:21:26;21.80;56.90
15609;DHT22;64278;45.642;13.756;2023-03-21T10:23:54;21.80;56.90
15609;DHT22;64278;45.642;13.756;2023-03-21T10:26:23;21.80;57.00
15609;DHT22;64278;45.642;13.756;2023-03-21T10:28:49;21.80;56.90
15609;DHT22;64278;45.642;13.756;2023-03-21T10:31:18;21.80;57.00
15609;DHT22;64278;45.642;13.756;2023-03-21T10:33:47;21.80;56.90
15609;DHT22;64278;45.642;13.756;2023-03-21T10:36:25;21.80;56.90
15609;DHT22;64278;45.642;13.756;2023-03-21T10:39:06;21.80;57.00
15609;DHT22;64278;45.642;13.756;2023-03-21T10:41:35;21.90;57.00
15609;DHT22;64278;45.642;13.756;2023-03-21T10:44:06;21.80;56.90
15609;DHT22;64278;45.642;13.756;2023-03-21T10:46:32;21.80;57.00
15609;DHT22;64278;45.642;13.756;2023-03-21T10:48:58;21.80;56.90
15609;DHT22;64278;45.642;13.756;2023-03-21T10:51:31;21.80;56.90
15609;DHT22;64278;45.642;13.756;2023-03-21T10:54:04;21.80;56.80
15609;DHT22;64278;45.642;13.756;2023-03-21T10:56:36;21.90;56.90
15609;DHT22;64278;45.642;13.756;2023-03-21T10:59:04;21.80;56.90
15609;DHT22;64278;45.642;13.756;2023-03-21T11:01:41;21.90;56.90
15609;DHT22;64278;45.642;13.756;2023-03-21T11:04:15;21.90;57.10
15609;DHT22;64278;45.642;13.756;2023-03-21T11:06:43;21.80;57.50
15609;DHT22;64278;45.642;13.756;2023-03-21T11:09:17;21.80;58.10
15609;DHT22;64278;45.642;13.756;2023-03-21T11:11:52;21.80;58.40
15609;DHT22;64278;45.642;13.756;2023-03-21T11:16:58;21.80;58.60
15609;DHT22;64278;45.642;13.756;2023-03-21T11:19:32;21.90;58.60
15609;DHT22;64278;45.642;13.756;2023-03-21T11:22:03;21.90;58.80
15609;DHT22;64278;45.642;13.756;2023-03-21T11:24:30;21.90;58.70
15609;DHT22;64278;45.642;13.756;2023-03-21T11:26:57;21.90;58.80
15609;DHT22;64278;45.642;13.756;2023-03-21T11:29:28;21.90;58.70
15609;DHT22;64278;45.642;13.756;2023-03-21T11:35:32;22.00;58.50
15609;DHT22;64278;45.642;13.756;2023-03-21T11:37:42;22.00;58.60
15609;DHT22;64278;45.642;13.756;2023-03-21T11:42:45;22.00;58.50
15609;DHT22;64278;45.642;13.756;2023-03-21T11:45:27;22.00;58.50
15609;DHT22;64278;45.642;13.756;2023-03-21T11:47:55;22.00;58.50
15609;DHT22;64278;45.642;13.756;2023-03-21T11:58:50;22.00;58.20
15609;DHT22;64278;45.642;13.756;2023-03-21T12:01:40;22.00;58.10
15609;DHT22;64278;45.642;13.756;2023-03-21T12:04:13;22.00;58.00
15609;DHT22;64278;45.642;13.756;2023-03-21T12:06:53;22.00;57.90
15609;DHT22;64278;45.642;13.756;2023-03-21T12:15:10;21.90;57.60
15609;DHT22;64278;45.642;13.756;2023-03-21T12:18:02;21.90;57.60
15609;DHT22;64278;45.642;13.756;2023-03-21T12:20:39;21.90;57.60
15609;DHT22;64278;45.642;13.756;2023-03-21T12:26:02;21.90;57.60
15609;DHT22;64278;45.642;13.756;2023-03-21T12:31:38;21.90;57.60
15609;DHT22;64278;45.642;13.756;2023-03-21T12:39:33;21.90;57.60
15609;DHT22;64278;45.642;13.756;2023-03-21T12:42:29;21.90;57.60
15609;DHT22;64278;45.642;13.756;2023-03-21T12:45:03;21.90;57.60
15609;DHT22;64278;45.642;13.756;2023-03-21T12:47:35;21.90;57.50
15609;DHT22;64278;45.642;13.756;2023-03-21T12:50:17;21.90;57.50
15609;DHT22;64278;45.642;13.756;2023-03-21T12:52:50;21.90;57.50
15609;DHT22;64278;45.642;13.756;2023-03-21T12:55:43;21.90;57.50
15609;DHT22;64278;45.642;13.756;2023-03-21T12:58:15;21.90;57.50
15609;DHT22;64278;45.642;13.756;2023-03-21T13:00:50;21.90;57.60
15609;DHT22;64278;45.642;13.756;2023-03-21T13:06:27;21.90;58.00
15609;DHT22;64278;45.642;13.756;2023-03-21T13:09:02;21.90;58.50
15609;DHT22;64278;45.642;13.756;2023-03-21T13:11:31;21.90;58.90
15609;DHT22;64278;45.642;13.756;2023-03-21T13:16:46;22.00;59.00
15609;DHT22;64278;45.642;13.756;2023-03-21T13:19:50;22.00;59.20
15609;DHT22;64278;45.642;13.756;2023-03-21T13:22:29;22.00;59.40
15609;DHT22;64278;45.642;13.756;2023-03-21T13:25:04;22.00;59.60
15609;DHT22;64278;45.642;13.756;2023-03-21T13:27:36;22.00;59.80
15609;DHT22;64278;45.642;13.756;2023-03-21T13:35:02;22.00;59.90
15609;DHT22;64278;45.642;13.756;2023-03-21T13:37:39;21.90;60.00
15609;DHT22;64278;45.642;13.756;2023-03-21T13:40:22;22.00;60.10
15609;DHT22;64278;45.642;13.756;2023-03-21T13:42:54;21.90;60.10
15609;DHT22;64278;45.642;13.756;2023-03-21T13:45:45;21.90;60.10
15609;DHT22;64278;45.642;13.756;2023-03-21T13:48:40;22.00;60.20
15609;DHT22;64278;45.642;13.756;2023-03-21T13:51:06;22.00;60.10
15609;DHT22;64278;45.642;13.756;2023-03-21T13:53:39;21.90;60.00
15609;DHT22;64278;45.642;13.756;2023-03-21T14:01:35;22.00;60.10
15609;DHT22;64278;45.642;13.756;2023-03-21T14:04:16;21.90;60.10
15609;DHT22;64278;45.642;13.756;2023-03-21T14:06:44;22.00;60.00
15609;DHT22;64278;45.642;13.756;2023-03-21T14:09:21;22.00;60.00
15609;DHT22;64278;45.642;13.756;2023-03-21T14:11:50;22.00;59.90
15609;DHT22;64278;45.642;13.756;2023-03-21T14:14:18;22.00;60.00
15609;DHT22;64278;45.642;13.756;2023-03-21T14:16:44;22.00;60.00
15609;DHT22;64278;45.642;13.756;2023-03-21T14:19:10;22.00;60.00
15609;DHT22;64278;45.642;13.756;2023-03-21T14:21:36;22.00;59.90
15609;DHT22;64278;45.642;13.756;2023-03-21T14:24:10;22.00;60.00
15609;DHT22;64278;45.642;13.756;2023-03-21T14:26:43;22.10;60.00
15609;DHT22;64278;45.642;13.756;2023-03-21T14:29:25;22.10;60.00
15609;DHT22;64278;45.642;13.756;2023-03-21T14:31:51;22.10;60.00
15609;DHT22;64278;45.642;13.756;2023-03-21T14:34:17;22.10;60.00
15609;DHT22;64278;45.642;13.756;2023-03-21T14:36:44;22.10;59.90
15609;DHT22;64278;45.642;13.756;2023-03-21T14:39:22;22.10;59.90
15609;DHT22;64278;45.642;13.756;2023-03-21T14:41:52;22.20;59.90
15609;DHT22;64278;45.642;13.756;2023-03-21T14:44:26;22.20;59.90
15609;DHT22;64278;45.642;13.756;2023-03-21T14:47:08;22.20;60.00
15609;DHT22;64278;45.642;13.756;2023-03-21T14:49:41;22.30;60.00
15609;DHT22;64278;45.642;13.756;2023-03-21T14:52:10;22.20;60.00
15609;DHT22;64278;45.642;13.756;2023-03-21T14:54:39;22.20;59.90
15609;DHT22;64278;45.642;13.756;2023-03-21T14:57:12;22.20;59.90
15609;DHT22;64278;45.642;13.756;2023-03-21T14:59:39;22.20;59.70
15609;DHT22;64278;45.642;13.756;2023-03-21T15:02:18;22.20;59.70
15609;DHT22;64278;45.642;13.756;2023-03-21T15:04:56;22.20;59.70
15609;DHT22;64278;45.642;13.756;2023-03-21T15:07:31;22.20;59.60
15609;DHT22;64278;45.642;13.756;2023-03-21T15:10:06;22.10;59.60
15609;DHT22;64278;45.642;13.756;2023-03-21T15:12:32;22.10;59.50
15609;DHT22;64278;45.642;13.756;2023-03-21T15:14:59;22.10;59.50
15609;DHT22;64278;45.642;13.756;2023-03-21T15:17:26;22.10;59.50
15609;DHT22;64278;45.642;13.756;2023-03-21T15:19:52;22.10;60.10
15609;DHT22;64278;45.642;13.756;2023-03-21T15:22:32;22.10;59.40
15609;DHT22;64278;45.642;13.756;2023-03-21T15:25:02;22.00;59.40
15609;DHT22;64278;45.642;13.756;2023-03-21T15:27:32;22.00;59.40
15609;DHT22;64278;45.642;13.756;2023-03-21T15:29:59;22.00;59.40
15609;DHT22;64278;45.642;13.756;2023-03-21T15:34:55;22.00;59.40
15609;DHT22;64278;45.642;13.756;2023-03-21T15:37:31;22.00;59.40
15609;DHT22;64278;45.642;13.756;2023-03-21T15:40:15;22.00;59.30
15609;DHT22;64278;45.642;13.756;2023-03-21T15:42:43;22.00;59.40
15609;DHT22;64278;45.642;13.756;2023-03-21T15:45:19;22.00;59.40
15609;DHT22;64278;45.642;13.756;2023-03-21T15:52:52;21.90;59.30
15609;DHT22;64278;45.642;13.756;2023-03-21T15:55:23;21.90;59.30
15609;DHT22;64278;45.642;13.756;2023-03-21T15:57:59;21.90;59.30
15609;DHT22;64278;45.642;13.756;2023-03-21T16:03:12;21.90;59.30
15609;DHT22;64278;45.642;13.756;2023-03-21T16:05:38;21.90;59.20
15609;DHT22;64278;45.642;13.756;2023-03-21T16:08:05;21.90;59.20
15609;DHT22;64278;45.642;13.756;2023-03-21T16:10:41;21.90;59.20
15609;DHT22;64278;45.642;13.756;2023-03-21T16:13:10;21.90;59.20
15609;DHT22;64278;45.642;13.756;2023-03-21T16:15:38;21.90;59.20
15609;DHT22;64278;45.642;13.756;2023-03-21T16:18:05;21.90;59.20
15609;DHT22;64278;45.642;13.756;2023-03-21T16:20:39;21.90;59.20
15609;DHT22;64278;45.642;13.756;2023-03-21T16:23:05;21.90;59.20
15609;DHT22;64278;45.642;13.756;2023-03-21T16:25:32;21.90;59.20
15609;DHT22;64278;45.642;13.756;2023-03-21T16:27:58;21.90;59.20
15609;DHT22;64278;45.642;13.756;2023-03-21T16:30:24;21.90;59.20
15609;DHT22;64278;45.642;13.756;2023-03-21T16:32:51;21.90;59.20
15609;DHT22;64278;45.642;13.756;2023-03-21T16:35:17;21.90;59.20
15609;DHT22;64278;45.642;13.756;2023-03-21T16:37:44;21.90;59.20
15609;DHT22;64278;45.642;13.756;2023-03-21T16:40:23;21.90;59.10
15609;DHT22;64278;45.642;13.756;2023-03-21T16:42:51;21.90;59.10
15609;DHT22;64278;45.642;13.756;2023-03-21T16:45:17;21.90;59.10
15609;DHT22;64278;45.642;13.756;2023-03-21T16:47:43;21.90;59.20
15609;DHT22;64278;45.642;13.756;2023-03-21T16:50:32;21.90;59.20
15609;DHT22;64278;45.642;13.756;2023-03-21T16:52:59;21.80;59.10
15609;DHT22;64278;45.642;13.756;2023-03-21T16:55:25;21.80;59.00
15609;DHT22;64278;45.642;13.756;2023-03-21T16:57:52;21.90;59.20
15609;DHT22;64278;45.642;13.756;2023-03-21T17:00:24;21.80;59.10
15609;DHT22;64278;45.642;13.756;2023-03-21T17:02:51;21.80;59.00
15609;DHT22;64278;45.642;13.756;2023-03-21T17:05:20;21.80;59.00
15609;DHT22;64278;45.642;13.756;2023-03-21T17:07:46;21.80;59.00
15609;DHT22;64278;45.642;13.756;2023-03-21T17:10:27;21.80;59.00
15609;DHT22;64278;45.642;13.756;2023-03-21T17:12:53;21.80;59.00
15609;DHT22;64278;45.642;13.756;2023-03-21T17:15:19;21.80;59.00
15609;DHT22;64278;45.642;13.756;2023-03-21T17:17:46;21.80;59.00
15609;DHT22;64278;45.642;13.756;2023-03-21T17:22:43;21.80;59.00
15609;DHT22;64278;45.642;13.756;2023-03-21T17:25:08;21.80;59.00